createdAt,value
2019-05-26T00:02:03.030Z,35.17
2019-05-26T00:04:29.267Z,33.07
2019-05-26T00:06:55.508Z,37.43
2019-05-26T00:09:21.727Z,38.97
2019-05-26T00:11:47.958Z,36.47
2019-05-26T00:14:14.158Z,34.23
2019-05-26T00:16:40.272Z,34.87
2019-05-26T00:19:06.422Z,37.90
2019-05-26T00:21:32.530Z,35.00
2019-05-26T00:23:58.741Z,38.57
2019-05-26T00:26:24.892Z,37.70
2019-05-26T00:28:51.089Z,37.43
2019-05-26T00:31:17.427Z,37.40
2019-05-26T00:33:43.639Z,35.80
2019-05-26T00:36:09.747Z,40.07
2019-05-26T00:38:35.959Z,38.93
2019-05-26T00:41:02.212Z,40.63
2019-05-26T00:43:28.463Z,44.43
2019-05-26T00:45:54.652Z,35.83
2019-05-26T00:48:20.792Z,40.03
2019-05-26T00:50:48.722Z,36.07
2019-05-26T00:53:14.830Z,40.53
2019-05-26T00:55:40.954Z,38.57
2019-05-26T00:58:07.097Z,37.53
2019-05-26T01:00:38.250Z,41.33
2019-05-26T01:03:04.361Z,40.27
2019-05-26T01:05:30.521Z,41.20
2019-05-26T01:08:05.746Z,41.20
2019-05-26T01:10:24.776Z,46.90
2019-05-26T01:12:50.982Z,40.80
2019-05-26T01:15:17.486Z,40.90
2019-05-26T01:17:43.651Z,42.93
2019-05-26T01:20:10.253Z,36.93
2019-05-26T01:22:36.425Z,44.23
2019-05-26T01:25:05.384Z,46.30
2019-05-26T01:27:31.608Z,42.90
2019-05-26T01:29:57.813Z,44.13
2019-05-26T01:32:24.050Z,42.57
2019-05-26T01:34:50.361Z,47.77
2019-05-26T01:37:16.691Z,45.60
2019-05-26T01:39:42.934Z,45.77
2019-05-26T01:42:09.099Z,44.27
2019-05-26T01:44:35.296Z,44.47
2019-05-26T01:49:25.301Z,42.17
2019-05-26T01:51:51.578Z,43.20
2019-05-26T01:54:17.705Z,42.53
2019-05-26T01:56:43.859Z,43.33
2019-05-26T01:59:10.153Z,43.07
2019-05-26T02:01:36.293Z,42.40
2019-05-26T02:04:02.538Z,41.17
2019-05-26T02:06:28.638Z,46.17
2019-05-26T02:08:54.769Z,44.33
2019-05-26T02:11:21.140Z,47.70
2019-05-26T02:13:47.484Z,44.00
2019-05-26T02:16:13.672Z,44.20
2019-05-26T02:18:39.905Z,44.90
2019-05-26T02:21:06.141Z,43.93
2019-05-26T02:23:32.359Z,48.13
2019-05-26T02:25:58.529Z,42.30
2019-05-26T02:28:24.733Z,44.53
2019-05-26T02:30:51.050Z,46.17
2019-05-26T02:33:18.082Z,44.33
2019-05-26T02:35:44.328Z,46.30
2019-05-26T02:38:10.509Z,43.20
2019-05-26T02:40:36.641Z,44.70
2019-05-26T02:43:02.857Z,51.03
2019-05-26T02:45:29.060Z,51.20
2019-05-26T02:47:55.303Z,49.53
2019-05-26T02:50:22.027Z,51.90
2019-05-26T02:52:48.313Z,52.03
2019-05-26T02:55:15.329Z,51.37
2019-05-26T02:57:41.559Z,54.03
2019-05-26T03:00:09.867Z,51.53
2019-05-26T03:02:36.294Z,53.77
2019-05-26T03:05:05.497Z,56.33
2019-05-26T03:07:31.916Z,60.83
2019-05-26T03:09:59.258Z,58.63
2019-05-26T03:12:27.357Z,55.53
2019-05-26T03:14:55.450Z,55.97
2019-05-26T03:17:23.214Z,60.80
2019-05-26T03:19:50.113Z,58.63
2019-05-26T03:22:18.032Z,54.90
2019-05-26T03:24:47.780Z,54.77
2019-05-26T03:29:45.325Z,47.13
2019-05-26T03:32:11.552Z,57.83
2019-05-26T03:34:37.767Z,45.90
2019-05-26T03:37:03.968Z,61.90
2019-05-26T03:39:43.628Z,52.37
2019-05-26T03:41:58.119Z,53.57
2019-05-26T03:44:24.331Z,49.57
2019-05-26T03:46:50.612Z,54.27
2019-05-26T03:49:16.825Z,56.33
2019-05-26T03:51:43.034Z,56.03
2019-05-26T03:54:09.262Z,49.93
2019-05-26T03:56:35.381Z,50.00
2019-05-26T03:59:01.520Z,53.60
2019-05-26T04:01:27.758Z,53.93
2019-05-26T04:03:53.987Z,52.43
2019-05-26T04:06:20.399Z,50.70
2019-05-26T04:08:46.760Z,56.93
2019-05-26T04:11:12.999Z,53.37
2019-05-26T04:13:39.219Z,54.63
2019-05-26T04:16:05.681Z,51.83
2019-05-26T04:18:31.978Z,60.67
2019-05-26T04:20:58.128Z,56.43
2019-05-26T04:23:24.369Z,51.13
2019-05-26T04:25:50.693Z,53.07
2019-05-26T04:28:17.004Z,54.20
2019-05-26T04:30:43.170Z,52.07
2019-05-26T04:33:09.371Z,47.87
2019-05-26T04:35:35.585Z,57.83
2019-05-26T04:38:01.927Z,53.27
2019-05-26T04:40:28.386Z,49.47
2019-05-26T04:42:54.571Z,49.70
2019-05-26T04:45:20.929Z,49.60
2019-05-26T04:47:47.083Z,49.00
2019-05-26T04:50:13.608Z,55.70
2019-05-26T04:52:39.829Z,52.70
2019-05-26T04:55:07.923Z,50.57
2019-05-26T04:57:34.030Z,54.10
2019-05-26T05:00:00.279Z,48.77
2019-05-26T05:02:26.483Z,55.97
2019-05-26T05:04:52.678Z,56.80
2019-05-26T05:07:18.827Z,54.30
2019-05-26T05:09:45.043Z,50.00
2019-05-26T05:12:11.264Z,53.97
2019-05-26T05:14:37.639Z,52.40
2019-05-26T05:17:03.870Z,55.93
2019-05-26T05:19:30.099Z,54.27
2019-05-26T05:21:56.346Z,50.03
2019-05-26T05:24:22.596Z,43.23
2019-05-26T05:26:48.842Z,49.77
2019-05-26T05:29:15.090Z,44.60
2019-05-26T05:31:41.325Z,39.33
2019-05-26T05:34:07.532Z,44.70
2019-05-26T05:36:33.759Z,46.63
2019-05-26T05:38:59.987Z,41.43
2019-05-26T05:41:26.205Z,46.97
2019-05-26T05:43:52.371Z,45.87
2019-05-26T05:46:18.575Z,44.97
2019-05-26T05:48:44.708Z,47.47
2019-05-26T05:51:10.990Z,43.63
2019-05-26T05:53:37.218Z,45.80
2019-05-26T05:56:05.279Z,52.20
2019-05-26T05:58:31.486Z,50.43
2019-05-26T06:00:57.613Z,43.83
2019-05-26T06:03:23.744Z,52.30
2019-05-26T06:05:49.891Z,53.50
2019-05-26T06:08:16.206Z,46.67
2019-05-26T06:10:42.577Z,48.50
2019-05-26T06:13:08.797Z,43.27
2019-05-26T06:15:34.922Z,47.40
2019-05-26T06:18:01.067Z,45.80
2019-05-26T06:20:27.300Z,45.10
2019-05-26T06:22:53.414Z,40.53
2019-05-26T06:25:19.727Z,47.07
2019-05-26T06:27:45.968Z,44.37
2019-05-26T06:30:12.585Z,41.33
2019-05-26T06:32:38.702Z,48.97
2019-05-26T06:35:05.798Z,41.43
2019-05-26T06:37:31.992Z,42.83
2019-05-26T06:39:58.503Z,38.73
2019-05-26T06:42:24.675Z,39.27
2019-05-26T06:44:53.996Z,34.63
2019-05-26T06:47:18.927Z,35.90
2019-05-26T06:49:45.155Z,35.83
2019-05-26T06:52:11.388Z,33.53
2019-05-26T06:54:37.635Z,31.13
2019-05-26T06:57:04.500Z,40.23
2019-05-26T06:59:30.705Z,32.97
2019-05-26T07:01:56.847Z,28.50
2019-05-26T07:04:22.982Z,29.13
2019-05-26T07:06:49.185Z,25.63
2019-05-26T07:09:15.408Z,26.47
2019-05-26T07:11:55.605Z,22.97
2019-05-26T07:14:09.571Z,28.73
2019-05-26T07:16:38.438Z,26.20
2019-05-26T07:19:03.738Z,28.53
2019-05-26T07:21:29.978Z,29.47
2019-05-26T07:23:56.094Z,23.80
2019-05-26T07:26:22.232Z,24.60
2019-05-26T07:28:48.383Z,23.73
2019-05-26T07:31:14.513Z,23.67
2019-05-26T07:33:40.747Z,20.70
2019-05-26T07:36:06.945Z,21.07
2019-05-26T07:38:33.054Z,19.63
2019-05-26T07:40:59.307Z,21.93
2019-05-26T07:43:27.951Z,18.53
2019-05-26T07:45:53.450Z,20.33
2019-05-26T07:48:19.586Z,20.73
2019-05-26T07:50:45.817Z,18.37
2019-05-26T07:53:12.126Z,18.10
2019-05-26T07:55:38.266Z,18.87
2019-05-26T07:58:04.425Z,20.60
2019-05-26T08:00:30.643Z,19.20
2019-05-26T08:02:56.785Z,23.77
2019-05-26T08:05:22.995Z,25.73
2019-05-26T08:07:49.273Z,26.00
2019-05-26T08:10:16.003Z,21.63
2019-05-26T08:12:42.192Z,22.03
2019-05-26T08:15:08.844Z,18.90
2019-05-26T08:17:35.071Z,22.33
2019-05-26T08:20:02.780Z,22.93
2019-05-26T08:22:29.020Z,19.20
2019-05-26T08:24:55.259Z,17.57
2019-05-26T08:27:21.477Z,19.03
2019-05-26T08:29:47.631Z,20.63
2019-05-26T08:32:15.120Z,12.60
2019-05-26T08:34:41.383Z,11.30
2019-05-26T08:37:07.499Z,14.50
2019-05-26T08:39:33.648Z,12.60
2019-05-26T08:41:59.841Z,8.70
2019-05-26T08:44:25.952Z,8.27
2019-05-26T08:46:52.114Z,4.47
2019-05-26T08:49:18.313Z,4.77
2019-05-26T08:51:44.567Z,9.53
2019-05-26T08:54:10.861Z,11.67
2019-05-26T08:56:37.130Z,11.60
2019-05-26T08:59:03.337Z,5.23
2019-05-26T09:01:29.564Z,7.87
2019-05-26T09:03:55.698Z,4.93
2019-05-26T09:06:21.948Z,4.73
2019-05-26T09:08:48.121Z,5.20
2019-05-26T09:11:14.317Z,5.30
2019-05-26T09:13:40.520Z,4.93
2019-05-26T09:16:06.664Z,5.43
2019-05-26T09:18:32.820Z,3.00
2019-05-26T09:20:59.038Z,5.57
2019-05-26T09:23:25.285Z,5.73
2019-05-26T09:25:51.393Z,8.93
2019-05-26T09:28:17.510Z,7.97
2019-05-26T09:30:43.680Z,5.60
2019-05-26T09:33:09.908Z,7.90
2019-05-26T09:35:36.048Z,6.93
2019-05-26T09:38:02.372Z,5.43
2019-05-26T09:40:28.589Z,8.43
2019-05-26T09:42:54.817Z,6.70
2019-05-26T09:45:21.037Z,6.03
2019-05-26T09:47:47.231Z,8.33
2019-05-26T09:50:14.740Z,7.53
2019-05-26T09:52:40.905Z,15.77
2019-05-26T09:55:07.826Z,10.87
2019-05-26T09:57:34.140Z,8.87
2019-05-26T10:00:02.120Z,11.97
2019-05-26T10:02:28.327Z,6.93
2019-05-26T10:04:54.455Z,9.90
2019-05-26T10:07:20.698Z,6.53
2019-05-26T10:09:46.913Z,7.50
2019-05-26T10:12:13.217Z,5.73
2019-05-26T10:14:39.384Z,9.50
2019-05-26T10:17:05.745Z,8.50
2019-05-26T10:19:31.965Z,7.92
2019-05-26T10:21:58.152Z,7.80
2019-05-26T10:24:24.667Z,6.87
2019-05-26T10:26:50.907Z,7.90
2019-05-26T10:29:17.180Z,6.57
2019-05-26T10:31:43.460Z,7.40
2019-05-26T10:34:09.708Z,8.33
2019-05-26T10:36:35.925Z,10.57
2019-05-26T10:39:04.666Z,8.97
2019-05-26T10:41:30.862Z,6.73
2019-05-26T10:43:57.005Z,6.27
2019-05-26T10:46:23.226Z,8.70
2019-05-26T10:48:49.477Z,7.93
2019-05-26T10:51:15.720Z,8.70
2019-05-26T10:53:42.058Z,6.00
2019-05-26T10:56:08.233Z,2.73
2019-05-26T10:58:34.378Z,4.13
2019-05-26T11:01:00.724Z,5.27
2019-05-26T11:03:27.054Z,4.30
2019-05-26T11:05:53.185Z,6.73
2019-05-26T11:08:19.443Z,6.53
2019-05-26T11:10:45.637Z,3.47
2019-05-26T11:13:11.837Z,3.90
2019-05-26T11:15:38.188Z,4.87
2019-05-26T11:18:04.556Z,7.53
2019-05-26T11:20:30.939Z,5.60
2019-05-26T11:22:57.192Z,9.07
2019-05-26T11:25:23.400Z,8.17
2019-05-26T11:27:49.891Z,6.53
2019-05-26T11:30:17.737Z,5.23
2019-05-26T11:32:43.907Z,9.50
2019-05-26T11:35:12.309Z,5.50
2019-05-26T11:37:38.711Z,5.83
2019-05-26T11:40:06.091Z,7.50
2019-05-26T11:42:32.318Z,4.40
2019-05-26T11:44:58.586Z,2.80
2019-05-26T11:47:24.877Z,3.90
2019-05-26T11:49:51.379Z,8.43
2019-05-26T11:52:20.241Z,4.10
2019-05-26T11:54:45.646Z,8.57
2019-05-26T11:57:11.888Z,11.43
2019-05-26T11:59:38.132Z,7.37
2019-05-26T12:02:04.532Z,9.10
2019-05-26T12:04:30.773Z,9.90
2019-05-26T12:06:56.999Z,7.03
2019-05-26T12:09:23.261Z,9.20
2019-05-26T12:11:49.544Z,12.73
2019-05-26T12:14:15.845Z,20.37
2019-05-26T12:16:42.141Z,16.00
2019-05-26T12:19:08.638Z,14.40
2019-05-26T12:21:34.865Z,9.20
2019-05-26T12:24:01.020Z,11.17
2019-05-26T12:26:27.235Z,19.87
2019-05-26T12:28:53.441Z,12.13
2019-05-26T12:31:19.573Z,12.33
2019-05-26T12:33:45.729Z,16.10
2019-05-26T12:36:11.957Z,13.50
2019-05-26T12:38:39.958Z,9.50
2019-05-26T12:41:06.309Z,11.23
2019-05-26T12:43:32.527Z,10.50
2019-05-26T12:45:58.645Z,15.73
2019-05-26T12:48:24.789Z,9.37
2019-05-26T12:50:50.930Z,7.83
2019-05-26T12:53:17.146Z,9.33
2019-05-26T12:55:43.292Z,18.80
2019-05-26T12:58:09.409Z,9.40
2019-05-26T13:00:48.038Z,13.10
2019-05-26T13:03:03.718Z,11.13
2019-05-26T13:05:32.367Z,10.77
2019-05-26T13:07:58.479Z,14.07
2019-05-26T13:10:24.711Z,8.63
2019-05-26T13:12:50.917Z,15.03
2019-05-26T13:15:19.039Z,15.53
2019-05-26T13:17:45.419Z,9.07
2019-05-26T13:20:13.326Z,9.67
2019-05-26T13:22:40.717Z,14.87
2019-05-26T13:25:07.914Z,13.70
2019-05-26T13:27:34.232Z,13.07
2019-05-26T13:30:00.417Z,8.97
2019-05-26T13:32:26.619Z,16.17
2019-05-26T13:34:52.863Z,9.40
2019-05-26T13:37:18.990Z,12.40
2019-05-26T13:39:45.212Z,12.87
2019-05-26T13:42:11.345Z,8.93
2019-05-26T13:44:37.470Z,13.93
2019-05-26T13:47:03.714Z,16.40
2019-05-26T13:49:29.847Z,8.63
2019-05-26T13:51:55.959Z,12.40
2019-05-26T13:54:22.198Z,14.10
2019-05-26T13:56:48.526Z,7.80
2019-05-26T13:59:14.737Z,10.20
2019-05-26T14:01:40.965Z,9.67
2019-05-26T14:04:07.249Z,19.00
2019-05-26T14:06:33.371Z,10.97
2019-05-26T14:09:02.159Z,9.20
2019-05-26T14:11:27.539Z,7.13
2019-05-26T14:13:53.873Z,13.80
2019-05-26T14:16:21.203Z,7.20
2019-05-26T14:18:47.812Z,6.07
2019-05-26T14:21:13.938Z,12.50
2019-05-26T14:23:40.254Z,12.50
2019-05-26T14:26:06.478Z,17.70
2019-05-26T14:28:32.681Z,14.77
2019-05-26T14:30:58.820Z,24.47
2019-05-26T14:33:24.956Z,22.47
2019-05-26T14:35:51.169Z,23.33
2019-05-26T14:38:17.307Z,15.93
2019-05-26T14:40:43.420Z,13.17
2019-05-26T14:43:09.548Z,8.90
2019-05-26T14:45:35.806Z,7.00
2019-05-26T14:48:02.239Z,9.20
2019-05-26T14:50:28.547Z,10.37
2019-05-26T14:52:54.847Z,11.87
2019-05-26T14:55:21.137Z,17.30
2019-05-26T14:57:47.337Z,10.77
2019-05-26T15:00:14.493Z,3.90
2019-05-26T15:02:40.715Z,3.03
2019-05-26T15:05:08.663Z,11.43
2019-05-26T15:07:34.795Z,15.97
2019-05-26T15:10:01.208Z,15.70
2019-05-26T15:12:27.459Z,17.53
2019-05-26T15:14:53.731Z,21.77
2019-05-26T15:17:20.035Z,11.13
2019-05-26T15:19:46.228Z,9.77
2019-05-26T15:22:12.698Z,9.77
2019-05-26T15:24:38.966Z,8.30
2019-05-26T15:27:05.220Z,6.87
2019-05-26T15:29:31.519Z,3.80
2019-05-26T15:31:58.277Z,1.90
2019-05-26T15:34:24.542Z,2.43
2019-05-26T15:36:50.716Z,4.67
2019-05-26T15:39:16.960Z,2.83
2019-05-26T15:41:43.515Z,5.63
2019-05-26T15:44:09.813Z,3.30
2019-05-26T15:46:36.042Z,3.23
2019-05-26T15:49:02.315Z,3.07
2019-05-26T15:51:28.604Z,2.23
2019-05-26T15:53:54.770Z,2.00
2019-05-26T15:56:20.988Z,2.87
2019-05-26T15:58:47.130Z,1.80
2019-05-26T16:01:13.407Z,1.87
2019-05-26T16:03:39.638Z,2.67
2019-05-26T16:06:06.321Z,2.57
2019-05-26T16:08:32.558Z,4.03
2019-05-26T16:10:58.782Z,7.53
2019-05-26T16:13:25.042Z,4.27
2019-05-26T16:15:51.250Z,5.40
2019-05-26T16:18:17.383Z,4.40
2019-05-26T16:20:43.527Z,4.80
2019-05-26T16:23:09.856Z,4.57
2019-05-26T16:25:36.589Z,7.23
2019-05-26T16:28:03.057Z,3.37
2019-05-26T16:30:31.169Z,12.13
2019-05-26T16:32:57.317Z,5.57
2019-05-26T16:35:23.517Z,4.40
2019-05-26T16:37:49.922Z,7.83
2019-05-26T16:40:16.326Z,5.80
2019-05-26T16:42:42.958Z,14.17
2019-05-26T16:45:09.489Z,3.23
2019-05-26T16:47:35.798Z,4.87
2019-05-26T16:50:04.083Z,3.97
2019-05-26T16:52:30.304Z,4.90
2019-05-26T16:54:57.393Z,4.77
2019-05-26T16:57:23.771Z,6.93
2019-05-26T16:59:50.444Z,5.30
2019-05-26T17:02:16.613Z,4.50
2019-05-26T17:04:42.890Z,6.97
2019-05-26T17:07:09.260Z,5.93
2019-05-26T17:09:35.354Z,8.20
2019-05-26T17:12:01.620Z,6.43
2019-05-26T17:14:27.850Z,4.47
2019-05-26T17:16:54.089Z,5.67
2019-05-26T17:19:20.429Z,5.97
2019-05-26T17:21:46.633Z,8.57
2019-05-26T17:24:13.568Z,4.53
2019-05-26T17:26:40.255Z,7.17
2019-05-26T17:29:06.621Z,5.83
2019-05-26T17:31:32.777Z,10.67
2019-05-26T17:33:59.010Z,6.87
2019-05-26T17:36:25.256Z,9.07
2019-05-26T17:38:51.550Z,9.53
2019-05-26T17:41:17.795Z,9.23
2019-05-26T17:43:44.032Z,9.77
2019-05-26T17:46:10.247Z,7.97
2019-05-26T17:48:36.421Z,12.83
2019-05-26T17:51:02.729Z,10.40
2019-05-26T17:53:32.206Z,11.00
2019-05-26T17:55:58.451Z,12.07
2019-05-26T17:58:24.582Z,13.77
2019-05-26T18:00:50.799Z,13.97
2019-05-26T18:03:17.636Z,12.03
2019-05-26T18:05:43.750Z,8.47
2019-05-26T18:08:10.057Z,16.23
2019-05-26T18:10:36.206Z,12.47
2019-05-26T18:13:02.707Z,10.70
2019-05-26T18:15:31.137Z,11.73
2019-05-26T18:17:57.373Z,11.57
2019-05-26T18:20:23.587Z,11.10
2019-05-26T18:22:49.867Z,12.17
2019-05-26T18:25:16.276Z,11.23
2019-05-26T18:27:42.594Z,10.10
2019-05-26T18:30:09.120Z,12.25
2019-05-26T18:32:35.840Z,10.20
2019-05-26T18:35:04.656Z,17.13
2019-05-26T18:37:34.313Z,13.47
2019-05-26T18:40:00.553Z,17.47
2019-05-26T18:42:26.755Z,12.73
2019-05-26T18:44:52.974Z,14.83
2019-05-26T18:47:19.202Z,13.67
2019-05-26T18:49:45.301Z,10.53
2019-05-26T18:52:11.438Z,11.40
2019-05-26T18:54:37.831Z,8.37
2019-05-26T18:57:04.236Z,14.10
2019-05-26T18:59:30.455Z,14.70
2019-05-26T19:01:56.612Z,15.10
2019-05-26T19:04:22.835Z,12.30
2019-05-26T19:06:49.031Z,11.27
2019-05-26T19:09:15.214Z,10.60
2019-05-26T19:11:41.337Z,10.50
2019-05-26T19:14:07.887Z,7.23
2019-05-26T19:16:36.068Z,11.60
2019-05-26T19:19:03.128Z,8.03
2019-05-26T19:21:31.571Z,7.50
2019-05-26T19:23:57.982Z,4.37
2019-05-26T19:26:24.660Z,6.93
2019-05-26T19:28:51.410Z,5.87
2019-05-26T19:31:18.082Z,6.30
2019-05-26T19:33:44.497Z,6.93
2019-05-26T19:36:10.745Z,5.30
2019-05-26T19:38:37.304Z,5.57
2019-05-26T19:41:03.927Z,4.03
2019-05-26T19:43:30.371Z,5.37
2019-05-26T19:45:57.143Z,6.57
2019-05-26T19:48:35.886Z,9.27
2019-05-26T19:50:52.485Z,8.67
2019-05-26T19:53:19.122Z,10.30
2019-05-26T19:55:45.728Z,13.93
2019-05-26T19:58:12.285Z,11.80
2019-05-26T20:00:38.938Z,12.83
2019-05-26T20:03:05.528Z,14.13
2019-05-26T20:05:32.091Z,14.73
2019-05-26T20:07:58.601Z,15.73
2019-05-26T20:10:25.197Z,20.90
2019-05-26T20:12:51.677Z,16.53
2019-05-26T20:15:18.651Z,16.17
2019-05-26T20:17:45.318Z,18.53
2019-05-26T20:20:12.552Z,18.33
2019-05-26T20:22:39.162Z,19.80
2019-05-26T20:25:07.154Z,24.17
2019-05-26T20:27:33.985Z,22.13
2019-05-26T20:30:00.667Z,29.90
2019-05-26T20:32:27.124Z,20.47
2019-05-26T20:34:53.554Z,27.60
2019-05-26T20:39:49.335Z,32.20
2019-05-26T20:42:18.554Z,27.27
2019-05-26T20:44:45.592Z,35.00
2019-05-26T20:47:12.385Z,27.30
2019-05-26T20:49:45.323Z,31.13
2019-05-26T20:52:07.406Z,30.80
2019-05-26T20:54:34.079Z,31.53
2019-05-26T20:57:01.012Z,29.23
2019-05-26T20:59:27.337Z,27.17
2019-05-26T21:01:54.151Z,28.60
2019-05-26T21:04:20.773Z,25.27
2019-05-26T21:06:47.997Z,29.60
2019-05-26T21:09:14.838Z,25.33
2019-05-26T21:11:41.452Z,30.70
2019-05-26T21:14:08.155Z,30.03
2019-05-26T21:16:34.851Z,33.47
2019-05-26T21:19:01.486Z,31.07
2019-05-26T21:21:28.204Z,37.00
2019-05-26T21:23:54.763Z,32.73
2019-05-26T21:26:21.615Z,37.23
2019-05-26T21:28:48.215Z,32.20
2019-05-26T21:31:15.087Z,32.63
2019-05-26T21:33:41.810Z,32.17
2019-05-26T21:36:08.309Z,32.50
2019-05-26T21:38:34.941Z,30.93
2019-05-26T21:41:01.623Z,32.23
2019-05-26T21:43:28.051Z,37.70
2019-05-26T21:45:54.510Z,37.67
2019-05-26T21:48:21.041Z,43.93
2019-05-26T21:50:47.480Z,40.20
2019-05-26T21:53:14.049Z,41.50
2019-05-26T21:55:40.690Z,43.33
2019-05-26T21:58:07.005Z,40.07
2019-05-26T22:00:41.673Z,44.97
2019-05-26T22:03:08.196Z,39.87
2019-05-26T22:05:34.901Z,41.70
2019-05-26T22:08:01.478Z,46.90
2019-05-26T22:10:28.084Z,40.63
2019-05-26T22:12:54.903Z,48.23
2019-05-26T22:15:21.637Z,47.83
2019-05-26T22:17:48.056Z,48.60
2019-05-26T22:20:14.678Z,52.27
2019-05-26T22:22:41.382Z,53.17
2019-05-26T22:25:08.194Z,51.43
2019-05-26T22:27:34.859Z,45.67
2019-05-26T22:30:01.607Z,48.50
2019-05-26T22:32:28.243Z,49.13
2019-05-26T22:34:54.987Z,41.13
2019-05-26T22:37:21.774Z,38.07
2019-05-26T22:39:48.232Z,28.67
2019-05-26T22:42:14.646Z,37.70
2019-05-26T22:44:41.342Z,27.37
2019-05-26T22:47:08.006Z,31.50
2019-05-26T22:49:34.783Z,27.77
2019-05-26T22:52:01.521Z,29.57
2019-05-26T22:54:27.932Z,26.07
2019-05-26T22:56:54.575Z,30.20
2019-05-26T22:59:21.179Z,31.60
2019-05-26T23:01:47.807Z,26.47
2019-05-26T23:04:14.363Z,28.77
2019-05-26T23:06:40.979Z,22.03
2019-05-26T23:09:07.664Z,31.03
2019-05-26T23:11:34.176Z,31.47
2019-05-26T23:14:01.009Z,35.90
2019-05-26T23:16:27.610Z,25.63
2019-05-26T23:18:54.097Z,29.70
2019-05-26T23:21:20.941Z,33.53
2019-05-26T23:23:47.629Z,33.40
2019-05-26T23:26:14.014Z,31.87
2019-05-26T23:28:40.722Z,32.60
2019-05-26T23:31:07.307Z,29.47
2019-05-26T23:33:33.889Z,32.03
2019-05-26T23:36:00.549Z,27.57
2019-05-26T23:38:27.170Z,30.53
2019-05-26T23:40:53.564Z,29.07
2019-05-26T23:43:20.108Z,29.50
2019-05-26T23:45:46.442Z,23.63
2019-05-26T23:48:12.877Z,29.63
2019-05-26T23:50:39.308Z,26.00
2019-05-26T23:53:05.775Z,35.70
2019-05-26T23:55:32.220Z,24.50
2019-05-26T23:57:58.658Z,43.27
